sensor_id;sensor_type;location;lat;lon;timestamp;P1;durP1;ratioP1;P2;durP2;ratioP2
12114;SDS011;6121;49.810;6.418;2022-11-14T00:01:57;397.20;;;300.83;;
12114;SDS011;6121;49.810;6.418;2022-11-14T00:04:22;407.73;;;299.17;;
12114;SDS011;6121;49.810;6.418;2022-11-14T00:06:48;410.50;;;302.37;;
12114;SDS011;6121;49.810;6.418;2022-11-14T00:09:13;401.90;;;300.83;;
12114;SDS011;6121;49.810;6.418;2022-11-14T00:11:39;388.73;;;263.00;;
12114;SDS011;6121;49.810;6.418;2022-11-14T00:14:05;392.77;;;264.70;;
12114;SDS011;6121;49.810;6.418;2022-11-14T00:16:30;406.07;;;269.57;;
12114;SDS011;6121;49.810;6.418;2022-11-14T00:18:56;401.13;;;274.50;;
12114;SDS011;6121;49.810;6.418;2022-11-14T00:21:21;402.27;;;288.88;;
12114;SDS011;6121;49.810;6.418;2022-11-14T00:23:47;399.63;;;275.87;;
12114;SDS011;6121;49.810;6.418;2022-11-14T00:26:12;389.10;;;264.00;;
12114;SDS011;6121;49.810;6.418;2022-11-14T00:28:38;401.83;;;298.33;;
12114;SDS011;6121;49.810;6.418;2022-11-14T00:31:04;406.33;;;282.70;;
12114;SDS011;6121;49.810;6.418;2022-11-14T00:33:29;409.97;;;288.63;;
12114;SDS011;6121;49.810;6.418;2022-11-14T00:35:55;399.95;;;292.35;;
12114;SDS011;6121;49.810;6.418;2022-11-14T00:38:21;392.27;;;263.40;;
12114;SDS011;6121;49.810;6.418;2022-11-14T00:40:47;405.05;;;269.73;;
12114;SDS011;6121;49.810;6.418;2022-11-14T00:43:13;408.13;;;295.92;;
12114;SDS011;6121;49.810;6.418;2022-11-14T00:45:41;405.10;;;278.93;;
12114;SDS011;6121;49.810;6.418;2022-11-14T00:48:07;406.48;;;274.67;;
12114;SDS011;6121;49.810;6.418;2022-11-14T00:50:33;442.53;;;310.20;;
12114;SDS011;6121;49.810;6.418;2022-11-14T00:52:59;394.67;;;263.63;;
12114;SDS011;6121;49.810;6.418;2022-11-14T00:55:24;390.13;;;252.10;;
12114;SDS011;6121;49.810;6.418;2022-11-14T00:57:50;399.88;;;299.05;;
12114;SDS011;6121;49.810;6.418;2022-11-14T01:00:15;431.10;;;325.87;;
12114;SDS011;6121;49.810;6.418;2022-11-14T01:02:41;405.27;;;305.70;;
12114;SDS011;6121;49.810;6.418;2022-11-14T01:05:06;417.75;;;342.13;;
12114;SDS011;6121;49.810;6.418;2022-11-14T01:07:32;403.53;;;323.70;;
12114;SDS011;6121;49.810;6.418;2022-11-14T01:09:58;427.03;;;349.33;;
12114;SDS011;6121;49.810;6.418;2022-11-14T01:12:23;428.65;;;344.08;;
12114;SDS011;6121;49.810;6.418;2022-11-14T01:14:49;429.43;;;342.03;;
12114;SDS011;6121;49.810;6.418;2022-11-14T01:17:14;407.43;;;319.10;;
12114;SDS011;6121;49.810;6.418;2022-11-14T01:19:40;404.60;;;327.67;;
12114;SDS011;6121;49.810;6.418;2022-11-14T01:22:06;413.67;;;333.20;;
12114;SDS011;6121;49.810;6.418;2022-11-14T01:24:31;419.40;;;336.10;;
12114;SDS011;6121;49.810;6.418;2022-11-14T01:26:58;415.65;;;332.95;;
12114;SDS011;6121;49.810;6.418;2022-11-14T01:29:23;406.70;;;335.90;;
12114;SDS011;6121;49.810;6.418;2022-11-14T01:31:49;415.50;;;352.20;;
12114;SDS011;6121;49.810;6.418;2022-11-14T01:34:15;423.05;;;364.17;;
12114;SDS011;6121;49.810;6.418;2022-11-14T01:36:40;421.77;;;343.38;;
12114;SDS011;6121;49.810;6.418;2022-11-14T01:39:06;407.03;;;324.37;;
12114;SDS011;6121;49.810;6.418;2022-11-14T01:41:31;415.77;;;338.00;;
12114;SDS011;6121;49.810;6.418;2022-11-14T01:43:57;411.30;;;328.73;;
12114;SDS011;6121;49.810;6.418;2022-11-14T01:46:30;414.53;;;320.00;;
12114;SDS011;6121;49.810;6.418;2022-11-14T01:49:14;414.05;;;346.27;;
12114;SDS011;6121;49.810;6.418;2022-11-14T01:51:58;409.42;;;332.55;;
12114;SDS011;6121;49.810;6.418;2022-11-14T01:54:29;412.10;;;332.90;;
12114;SDS011;6121;49.810;6.418;2022-11-14T01:56:58;412.20;;;343.90;;
12114;SDS011;6121;49.810;6.418;2022-11-14T01:59:36;417.60;;;362.25;;
12114;SDS011;6121;49.810;6.418;2022-11-14T02:02:05;417.00;;;359.73;;
12114;SDS011;6121;49.810;6.418;2022-11-14T02:04:37;404.70;;;318.20;;
12114;SDS011;6121;49.810;6.418;2022-11-14T02:07:08;404.67;;;327.37;;
12114;SDS011;6121;49.810;6.418;2022-11-14T02:09:37;412.00;;;330.50;;
12114;SDS011;6121;49.810;6.418;2022-11-14T02:12:07;416.95;;;346.58;;
12114;SDS011;6121;49.810;6.418;2022-11-14T02:14:36;417.30;;;331.75;;
12114;SDS011;6121;49.810;6.418;2022-11-14T02:17:02;417.42;;;345.58;;
12114;SDS011;6121;49.810;6.418;2022-11-14T02:22:07;418.85;;;351.40;;
12114;SDS011;6121;49.810;6.418;2022-11-14T02:24:33;420.00;;;358.60;;
12114;SDS011;6121;49.810;6.418;2022-11-14T02:26:58;432.10;;;384.77;;
12114;SDS011;6121;49.810;6.418;2022-11-14T02:29:24;417.90;;;352.40;;
12114;SDS011;6121;49.810;6.418;2022-11-14T02:31:50;414.90;;;349.77;;
12114;SDS011;6121;49.810;6.418;2022-11-14T02:34:15;413.75;;;343.10;;
12114;SDS011;6121;49.810;6.418;2022-11-14T02:36:43;428.90;;;380.30;;
12114;SDS011;6121;49.810;6.418;2022-11-14T02:39:09;410.35;;;350.75;;
12114;SDS011;6121;49.810;6.418;2022-11-14T02:41:35;438.70;;;390.42;;
12114;SDS011;6121;49.810;6.418;2022-11-14T02:44:01;433.67;;;386.17;;
12114;SDS011;6121;49.810;6.418;2022-11-14T02:46:26;450.03;;;401.27;;
12114;SDS011;6121;49.810;6.418;2022-11-14T02:48:52;427.03;;;380.47;;
12114;SDS011;6121;49.810;6.418;2022-11-14T02:51:17;437.48;;;389.55;;
12114;SDS011;6121;49.810;6.418;2022-11-14T02:53:43;452.23;;;403.80;;
12114;SDS011;6121;49.810;6.418;2022-11-14T02:56:08;439.37;;;392.13;;
12114;SDS011;6121;49.810;6.418;2022-11-14T02:58:34;434.75;;;387.42;;
12114;SDS011;6121;49.810;6.418;2022-11-14T03:00:59;435.90;;;387.92;;
12114;SDS011;6121;49.810;6.418;2022-11-14T03:03:25;434.17;;;386.50;;
12114;SDS011;6121;49.810;6.418;2022-11-14T03:05:51;429.60;;;382.90;;
12114;SDS011;6121;49.810;6.418;2022-11-14T03:08:17;437.75;;;389.88;;
12114;SDS011;6121;49.810;6.418;2022-11-14T03:10:44;437.13;;;388.58;;
12114;SDS011;6121;49.810;6.418;2022-11-14T03:13:10;446.98;;;398.73;;
12114;SDS011;6121;49.810;6.418;2022-11-14T03:15:36;446.02;;;397.27;;
12114;SDS011;6121;49.810;6.418;2022-11-14T03:18:01;563.10;;;512.40;;
12114;SDS011;6121;49.810;6.418;2022-11-14T03:20:27;484.53;;;433.63;;
12114;SDS011;6121;49.810;6.418;2022-11-14T03:22:53;502.23;;;452.43;;
12114;SDS011;6121;49.810;6.418;2022-11-14T03:25:18;434.48;;;387.02;;
12114;SDS011;6121;49.810;6.418;2022-11-14T03:27:44;446.10;;;398.10;;
12114;SDS011;6121;49.810;6.418;2022-11-14T03:30:09;448.57;;;399.20;;
12114;SDS011;6121;49.810;6.418;2022-11-14T03:32:35;534.90;;;484.88;;
12114;SDS011;6121;49.810;6.418;2022-11-14T03:35:01;562.40;;;511.43;;
12114;SDS011;6121;49.810;6.418;2022-11-14T03:37:27;559.70;;;509.40;;
12114;SDS011;6121;49.810;6.418;2022-11-14T03:39:52;570.00;;;518.63;;
12114;SDS011;6121;49.810;6.418;2022-11-14T03:42:18;561.13;;;510.73;;
12114;SDS011;6121;49.810;6.418;2022-11-14T03:44:43;569.60;;;518.53;;
12114;SDS011;6121;49.810;6.418;2022-11-14T03:47:09;570.17;;;520.10;;
12114;SDS011;6121;49.810;6.418;2022-11-14T03:49:35;564.67;;;513.92;;
12114;SDS011;6121;49.810;6.418;2022-11-14T03:52:00;578.43;;;527.27;;
12114;SDS011;6121;49.810;6.418;2022-11-14T03:54:26;574.80;;;523.00;;
12114;SDS011;6121;49.810;6.418;2022-11-14T03:56:53;562.35;;;511.65;;
12114;SDS011;6121;49.810;6.418;2022-11-14T03:59:19;562.73;;;512.00;;
12114;SDS011;6121;49.810;6.418;2022-11-14T04:01:45;575.15;;;523.88;;
12114;SDS011;6121;49.810;6.418;2022-11-14T04:04:11;576.17;;;524.78;;
12114;SDS011;6121;49.810;6.418;2022-11-14T04:06:37;564.92;;;513.65;;
12114;SDS011;6121;49.810;6.418;2022-11-14T04:09:02;645.35;;;592.92;;
12114;SDS011;6121;49.810;6.418;2022-11-14T04:11:28;631.40;;;578.20;;
12114;SDS011;6121;49.810;6.418;2022-11-14T04:13:53;606.40;;;554.00;;
12114;SDS011;6121;49.810;6.418;2022-11-14T04:16:19;566.80;;;516.30;;
12114;SDS011;6121;49.810;6.418;2022-11-14T04:18:45;567.47;;;516.92;;
12114;SDS011;6121;49.810;6.418;2022-11-14T04:21:10;570.17;;;519.03;;
12114;SDS011;6121;49.810;6.418;2022-11-14T04:23:36;576.57;;;524.97;;
12114;SDS011;6121;49.810;6.418;2022-11-14T04:26:01;572.92;;;522.03;;
12114;SDS011;6121;49.810;6.418;2022-11-14T04:28:27;610.28;;;558.50;;
12114;SDS011;6121;49.810;6.418;2022-11-14T04:30:52;642.70;;;588.33;;
12114;SDS011;6121;49.810;6.418;2022-11-14T04:33:18;570.60;;;519.57;;
12114;SDS011;6121;49.810;6.418;2022-11-14T04:35:44;570.42;;;519.60;;
12114;SDS011;6121;49.810;6.418;2022-11-14T04:38:09;581.20;;;530.07;;
12114;SDS011;6121;49.810;6.418;2022-11-14T04:40:35;580.03;;;526.20;;
12114;SDS011;6121;49.810;6.418;2022-11-14T04:43:00;580.67;;;529.15;;
12114;SDS011;6121;49.810;6.418;2022-11-14T04:45:26;592.63;;;540.67;;
12114;SDS011;6121;49.810;6.418;2022-11-14T04:47:52;565.27;;;515.00;;
12114;SDS011;6121;49.810;6.418;2022-11-14T04:50:17;592.78;;;538.20;;
12114;SDS011;6121;49.810;6.418;2022-11-14T04:52:43;576.97;;;525.58;;
12114;SDS011;6121;49.810;6.418;2022-11-14T04:55:08;633.87;;;581.60;;
12114;SDS011;6121;49.810;6.418;2022-11-14T04:57:34;648.25;;;595.63;;
12114;SDS011;6121;49.810;6.418;2022-11-14T05:00:00;457.83;;;408.75;;
12114;SDS011;6121;49.810;6.418;2022-11-14T05:02:25;555.77;;;505.20;;
12114;SDS011;6121;49.810;6.418;2022-11-14T05:04:51;573.77;;;523.43;;
12114;SDS011;6121;49.810;6.418;2022-11-14T05:07:16;603.17;;;551.28;;
12114;SDS011;6121;49.810;6.418;2022-11-14T05:09:42;609.13;;;557.47;;
12114;SDS011;6121;49.810;6.418;2022-11-14T05:12:07;629.53;;;576.67;;
12114;SDS011;6121;49.810;6.418;2022-11-14T05:14:33;592.57;;;540.73;;
12114;SDS011;6121;49.810;6.418;2022-11-14T05:16:59;1002.05;;;937.33;;
12114;SDS011;6121;49.810;6.418;2022-11-14T05:19:24;568.28;;;517.97;;
12114;SDS011;6121;49.810;6.418;2022-11-14T05:21:50;557.97;;;507.73;;
12114;SDS011;6121;49.810;6.418;2022-11-14T05:24:15;452.40;;;403.00;;
12114;SDS011;6121;49.810;6.418;2022-11-14T05:26:41;655.10;;;601.65;;
12114;SDS011;6121;49.810;6.418;2022-11-14T05:29:07;665.75;;;612.95;;
12114;SDS011;6121;49.810;6.418;2022-11-14T05:31:32;641.93;;;588.17;;
12114;SDS011;6121;49.810;6.418;2022-11-14T05:33:58;503.30;;;453.63;;
12114;SDS011;6121;49.810;6.418;2022-11-14T05:36:23;583.08;;;531.03;;
12114;SDS011;6121;49.810;6.418;2022-11-14T05:38:49;577.17;;;526.73;;
12114;SDS011;6121;49.810;6.418;2022-11-14T05:41:15;584.40;;;532.53;;
12114;SDS011;6121;49.810;6.418;2022-11-14T05:43:42;644.42;;;591.17;;
12114;SDS011;6121;49.810;6.418;2022-11-14T05:46:09;580.95;;;529.75;;
12114;SDS011;6121;49.810;6.418;2022-11-14T05:48:35;633.63;;;580.88;;
12114;SDS011;6121;49.810;6.418;2022-11-14T05:51:02;592.15;;;540.33;;
12114;SDS011;6121;49.810;6.418;2022-11-14T05:53:29;697.22;;;643.13;;
12114;SDS011;6121;49.810;6.418;2022-11-14T05:56:06;615.47;;;564.08;;
12114;SDS011;6121;49.810;6.418;2022-11-14T05:58:34;705.03;;;650.63;;
12114;SDS011;6121;49.810;6.418;2022-11-14T06:01:04;779.50;;;722.58;;
12114;SDS011;6121;49.810;6.418;2022-11-14T06:03:48;714.85;;;659.67;;
12114;SDS011;6121;49.810;6.418;2022-11-14T06:06:15;495.13;;;446.15;;
12114;SDS011;6121;49.810;6.418;2022-11-14T06:08:43;627.58;;;575.20;;
12114;SDS011;6121;49.810;6.418;2022-11-14T06:11:13;569.90;;;519.33;;
12114;SDS011;6121;49.810;6.418;2022-11-14T06:13:40;818.63;;;761.00;;
12114;SDS011;6121;49.810;6.418;2022-11-14T06:16:07;793.92;;;737.38;;
12114;SDS011;6121;49.810;6.418;2022-11-14T06:18:36;597.35;;;546.83;;
12114;SDS011;6121;49.810;6.418;2022-11-14T06:21:03;585.30;;;534.33;;
12114;SDS011;6121;49.810;6.418;2022-11-14T06:23:30;585.85;;;535.17;;
12114;SDS011;6121;49.810;6.418;2022-11-14T06:25:57;597.13;;;546.55;;
12114;SDS011;6121;49.810;6.418;2022-11-14T06:28:26;597.20;;;546.33;;
12114;SDS011;6121;49.810;6.418;2022-11-14T06:30:59;598.53;;;546.65;;
12114;SDS011;6121;49.810;6.418;2022-11-14T06:33:26;649.50;;;596.10;;
12114;SDS011;6121;49.810;6.418;2022-11-14T06:35:59;584.20;;;532.80;;
12114;SDS011;6121;49.810;6.418;2022-11-14T06:38:26;656.60;;;604.15;;
12114;SDS011;6121;49.810;6.418;2022-11-14T06:41:16;717.45;;;660.85;;
12114;SDS011;6121;49.810;6.418;2022-11-14T06:43:42;600.63;;;549.05;;
12114;SDS011;6121;49.810;6.418;2022-11-14T06:46:10;717.03;;;661.97;;
12114;SDS011;6121;49.810;6.418;2022-11-14T06:48:37;685.88;;;632.85;;
12114;SDS011;6121;49.810;6.418;2022-11-14T06:51:04;842.20;;;783.42;;
12114;SDS011;6121;49.810;6.418;2022-11-14T06:53:31;868.80;;;809.38;;
12114;SDS011;6121;49.810;6.418;2022-11-14T06:56:02;839.38;;;780.65;;
12114;SDS011;6121;49.810;6.418;2022-11-14T06:58:31;612.40;;;560.08;;
12114;SDS011;6121;49.810;6.418;2022-11-14T07:01:04;668.65;;;615.35;;
12114;SDS011;6121;49.810;6.418;2022-11-14T07:03:44;586.40;;;535.22;;
12114;SDS011;6121;49.810;6.418;2022-11-14T07:06:12;600.80;;;549.53;;
12114;SDS011;6121;49.810;6.418;2022-11-14T07:08:39;582.42;;;531.85;;
12114;SDS011;6121;49.810;6.418;2022-11-14T07:13:50;591.37;;;539.23;;
12114;SDS011;6121;49.810;6.418;2022-11-14T07:16:17;592.58;;;540.80;;
12114;SDS011;6121;49.810;6.418;2022-11-14T07:18:43;574.22;;;524.08;;
12114;SDS011;6121;49.810;6.418;2022-11-14T07:21:09;747.40;;;692.22;;
12114;SDS011;6121;49.810;6.418;2022-11-14T07:23:37;830.50;;;772.72;;
12114;SDS011;6121;49.810;6.418;2022-11-14T07:26:04;815.75;;;758.92;;
12114;SDS011;6121;49.810;6.418;2022-11-14T07:28:31;822.08;;;764.75;;
12114;SDS011;6121;49.810;6.418;2022-11-14T07:30:58;822.45;;;763.40;;
12114;SDS011;6121;49.810;6.418;2022-11-14T07:33:26;819.22;;;761.72;;
12114;SDS011;6121;49.810;6.418;2022-11-14T07:35:51;815.17;;;758.15;;
12114;SDS011;6121;49.810;6.418;2022-11-14T07:38:17;822.13;;;764.60;;
12114;SDS011;6121;49.810;6.418;2022-11-14T07:40:51;574.13;;;521.97;;
12114;SDS011;6121;49.810;6.418;2022-11-14T07:43:17;591.55;;;539.88;;
12114;SDS011;6121;49.810;6.418;2022-11-14T07:45:43;586.28;;;534.53;;
12114;SDS011;6121;49.810;6.418;2022-11-14T07:48:08;630.85;;;579.25;;
12114;SDS011;6121;49.810;6.418;2022-11-14T07:50:34;600.00;;;547.50;;
12114;SDS011;6121;49.810;6.418;2022-11-14T07:52:59;585.37;;;534.53;;
12114;SDS011;6121;49.810;6.418;2022-11-14T07:55:25;581.05;;;529.80;;
12114;SDS011;6121;49.810;6.418;2022-11-14T07:57:51;580.28;;;529.75;;
12114;SDS011;6121;49.810;6.418;2022-11-14T08:00:17;596.85;;;543.58;;
12114;SDS011;6121;49.810;6.418;2022-11-14T08:02:44;582.10;;;530.33;;
12114;SDS011;6121;49.810;6.418;2022-11-14T08:05:11;577.00;;;526.22;;
12114;SDS011;6121;49.810;6.418;2022-11-14T08:07:37;571.75;;;521.35;;
12114;SDS011;6121;49.810;6.418;2022-11-14T08:10:03;593.60;;;540.60;;
12114;SDS011;6121;49.810;6.418;2022-11-14T08:12:29;581.13;;;529.80;;
12114;SDS011;6121;49.810;6.418;2022-11-14T08:14:54;586.20;;;535.13;;
12114;SDS011;6121;49.810;6.418;2022-11-14T08:17:21;597.40;;;546.00;;
12114;SDS011;6121;49.810;6.418;2022-11-14T08:19:47;581.35;;;530.60;;
12114;SDS011;6121;49.810;6.418;2022-11-14T08:22:13;607.30;;;554.13;;
12114;SDS011;6121;49.810;6.418;2022-11-14T08:24:38;583.43;;;532.47;;
12114;SDS011;6121;49.810;6.418;2022-11-14T08:27:04;577.38;;;526.50;;
12114;SDS011;6121;49.810;6.418;2022-11-14T08:29:29;567.88;;;518.08;;
12114;SDS011;6121;49.810;6.418;2022-11-14T08:31:55;584.50;;;533.23;;
12114;SDS011;6121;49.810;6.418;2022-11-14T08:34:21;587.47;;;536.40;;
12114;SDS011;6121;49.810;6.418;2022-11-14T08:36:49;591.37;;;540.23;;
12114;SDS011;6121;49.810;6.418;2022-11-14T08:39:15;588.55;;;537.45;;
12114;SDS011;6121;49.810;6.418;2022-11-14T08:41:40;596.90;;;544.85;;
12114;SDS011;6121;49.810;6.418;2022-11-14T08:44:06;602.17;;;550.37;;
12114;SDS011;6121;49.810;6.418;2022-11-14T08:46:31;588.33;;;537.10;;
12114;SDS011;6121;49.810;6.418;2022-11-14T08:48:57;698.30;;;641.72;;
12114;SDS011;6121;49.810;6.418;2022-11-14T08:51:22;753.45;;;697.42;;
12114;SDS011;6121;49.810;6.418;2022-11-14T08:53:48;851.37;;;791.53;;
12114;SDS011;6121;49.810;6.418;2022-11-14T08:56:16;605.00;;;553.83;;
12114;SDS011;6121;49.810;6.418;2022-11-14T08:58:42;712.60;;;656.88;;
12114;SDS011;6121;49.810;6.418;2022-11-14T09:01:08;657.15;;;604.45;;
12114;SDS011;6121;49.810;6.418;2022-11-14T09:03:33;642.80;;;590.53;;
12114;SDS011;6121;49.810;6.418;2022-11-14T09:05:59;596.27;;;544.80;;
12114;SDS011;6121;49.810;6.418;2022-11-14T09:08:26;604.78;;;553.78;;
12114;SDS011;6121;49.810;6.418;2022-11-14T09:10:52;628.85;;;575.60;;
12114;SDS011;6121;49.810;6.418;2022-11-14T09:13:18;697.13;;;643.17;;
12114;SDS011;6121;49.810;6.418;2022-11-14T09:15:43;672.83;;;619.67;;
12114;SDS011;6121;49.810;6.418;2022-11-14T09:18:10;700.13;;;646.43;;
12114;SDS011;6121;49.810;6.418;2022-11-14T09:20:36;684.78;;;629.58;;
12114;SDS011;6121;49.810;6.418;2022-11-14T09:23:02;632.43;;;579.70;;
12114;SDS011;6121;49.810;6.418;2022-11-14T09:25:29;599.38;;;547.63;;
12114;SDS011;6121;49.810;6.418;2022-11-14T09:27:55;646.42;;;593.92;;
12114;SDS011;6121;49.810;6.418;2022-11-14T09:30:21;663.13;;;607.67;;
12114;SDS011;6121;49.810;6.418;2022-11-14T09:32:47;629.60;;;577.17;;
12114;SDS011;6121;49.810;6.418;2022-11-14T09:35:13;644.38;;;592.00;;
12114;SDS011;6121;49.810;6.418;2022-11-14T09:37:39;643.70;;;591.55;;
12114;SDS011;6121;49.810;6.418;2022-11-14T09:40:05;675.38;;;620.63;;
12114;SDS011;6121;49.810;6.418;2022-11-14T09:45:11;681.78;;;628.67;;
12114;SDS011;6121;49.810;6.418;2022-11-14T09:47:42;678.35;;;625.70;;
12114;SDS011;6121;49.810;6.418;2022-11-14T09:50:34;702.50;;;647.15;;
12114;SDS011;6121;49.810;6.418;2022-11-14T09:55:48;979.40;;;915.53;;
12114;SDS011;6121;49.810;6.418;2022-11-14T09:58:17;830.40;;;771.63;;
12114;SDS011;6121;49.810;6.418;2022-11-14T10:00:52;824.83;;;764.67;;
12114;SDS011;6121;49.810;6.418;2022-11-14T10:06:31;696.15;;;642.33;;
12114;SDS011;6121;49.810;6.418;2022-11-14T10:22:56;821.00;;;762.97;;
12114;SDS011;6121;49.810;6.418;2022-11-14T10:25:25;791.80;;;734.97;;
12114;SDS011;6121;49.810;6.418;2022-11-14T10:30:50;726.85;;;670.17;;
12114;SDS011;6121;49.810;6.418;2022-11-14T10:33:30;846.83;;;787.53;;
12114;SDS011;6121;49.810;6.418;2022-11-14T10:41:36;712.92;;;659.08;;
12114;SDS011;6121;49.810;6.418;2022-11-14T10:44:03;710.50;;;655.85;;
12114;SDS011;6121;49.810;6.418;2022-11-14T10:46:39;708.38;;;654.22;;
12114;SDS011;6121;49.810;6.418;2022-11-14T10:49:14;709.25;;;655.28;;
12114;SDS011;6121;49.810;6.418;2022-11-14T10:51:51;708.47;;;653.85;;
12114;SDS011;6121;49.810;6.418;2022-11-14T10:54:27;923.57;;;861.93;;
12114;SDS011;6121;49.810;6.418;2022-11-14T10:56:59;799.28;;;741.67;;
12114;SDS011;6121;49.810;6.418;2022-11-14T10:59:24;797.88;;;740.97;;
12114;SDS011;6121;49.810;6.418;2022-11-14T11:01:55;842.20;;;783.15;;
12114;SDS011;6121;49.810;6.418;2022-11-14T11:06:54;810.25;;;752.65;;
12114;SDS011;6121;49.810;6.418;2022-11-14T11:09:25;793.75;;;736.15;;
12114;SDS011;6121;49.810;6.418;2022-11-14T11:12:15;828.50;;;769.75;;
12114;SDS011;6121;49.810;6.418;2022-11-14T11:14:43;816.88;;;758.22;;
12114;SDS011;6121;49.810;6.418;2022-11-14T11:19:36;793.97;;;737.95;;
12114;SDS011;6121;49.810;6.418;2022-11-14T11:22:02;781.85;;;725.15;;
12114;SDS011;6121;49.810;6.418;2022-11-14T11:24:29;798.58;;;741.47;;
12114;SDS011;6121;49.810;6.418;2022-11-14T11:27:10;808.97;;;750.75;;
12114;SDS011;6121;49.810;6.418;2022-11-14T11:29:42;705.13;;;651.38;;
12114;SDS011;6121;49.810;6.418;2022-11-14T11:32:08;891.60;;;831.13;;
12114;SDS011;6121;49.810;6.418;2022-11-14T11:34:34;797.28;;;740.35;;
12114;SDS011;6121;49.810;6.418;2022-11-14T11:39:50;809.20;;;750.70;;
12114;SDS011;6121;49.810;6.418;2022-11-14T11:42:23;790.92;;;733.80;;
12114;SDS011;6121;49.810;6.418;2022-11-14T11:44:55;811.65;;;753.60;;
12114;SDS011;6121;49.810;6.418;2022-11-14T11:47:24;788.65;;;732.13;;
12114;SDS011;6121;49.810;6.418;2022-11-14T11:49:53;804.92;;;747.22;;
12114;SDS011;6121;49.810;6.418;2022-11-14T11:57:36;798.80;;;741.15;;
12114;SDS011;6121;49.810;6.418;2022-11-14T12:00:14;822.33;;;762.38;;
12114;SDS011;6121;49.810;6.418;2022-11-14T12:02:41;805.33;;;746.63;;
12114;SDS011;6121;49.810;6.418;2022-11-14T12:05:12;793.22;;;736.00;;
12114;SDS011;6121;49.810;6.418;2022-11-14T12:08:03;799.30;;;742.40;;
12114;SDS011;6121;49.810;6.418;2022-11-14T12:10:35;810.88;;;751.05;;
12114;SDS011;6121;49.810;6.418;2022-11-14T12:15:39;800.93;;;743.60;;
12114;SDS011;6121;49.810;6.418;2022-11-14T12:21:01;827.05;;;766.95;;
12114;SDS011;6121;49.810;6.418;2022-11-14T12:23:47;802.40;;;744.25;;
12114;SDS011;6121;49.810;6.418;2022-11-14T12:32:04;800.40;;;742.42;;
12114;SDS011;6121;49.810;6.418;2022-11-14T12:34:42;810.90;;;752.80;;
12114;SDS011;6121;49.810;6.418;2022-11-14T12:37:14;799.42;;;742.00;;
12114;SDS011;6121;49.810;6.418;2022-11-14T12:39:53;815.60;;;757.60;;
12114;SDS011;6121;49.810;6.418;2022-11-14T12:42:26;816.47;;;757.20;;
12114;SDS011;6121;49.810;6.418;2022-11-14T12:44:52;814.22;;;755.35;;
12114;SDS011;6121;49.810;6.418;2022-11-14T12:47:27;791.05;;;734.05;;
12114;SDS011;6121;49.810;6.418;2022-11-14T13:00:34;1046.27;;;979.10;;
12114;SDS011;6121;49.810;6.418;2022-11-14T13:06:17;981.55;;;916.58;;
12114;SDS011;6121;49.810;6.418;2022-11-14T13:14:15;900.55;;;840.40;;
12114;SDS011;6121;49.810;6.418;2022-11-14T13:33:47;964.07;;;900.70;;
12114;SDS011;6121;49.810;6.418;2022-11-14T13:49:35;959.80;;;897.75;;
12114;SDS011;6121;49.810;6.418;2022-11-14T13:52:04;984.80;;;920.00;;
12114;SDS011;6121;49.810;6.418;2022-11-14T13:54:30;967.40;;;903.58;;
12114;SDS011;6121;49.810;6.418;2022-11-14T13:59:53;994.47;;;929.80;;
12114;SDS011;6121;49.810;6.418;2022-11-14T14:08:13;981.03;;;917.00;;
12114;SDS011;6121;49.810;6.418;2022-11-14T14:13:38;986.15;;;922.10;;
12114;SDS011;6121;49.810;6.418;2022-11-14T14:21:32;986.67;;;921.58;;
12114;SDS011;6121;49.810;6.418;2022-11-14T14:24:12;975.65;;;912.60;;
12114;SDS011;6121;49.810;6.418;2022-11-14T14:32:25;994.03;;;928.17;;
12114;SDS011;6121;49.810;6.418;2022-11-14T14:34:51;971.70;;;908.27;;
12114;SDS011;6121;49.810;6.418;2022-11-14T14:37:24;981.35;;;916.72;;
12114;SDS011;6121;49.810;6.418;2022-11-14T14:39:58;982.05;;;917.70;;
12114;SDS011;6121;49.810;6.418;2022-11-14T14:42:37;970.70;;;906.95;;
12114;SDS011;6121;49.810;6.418;2022-11-14T14:45:12;977.85;;;914.25;;
12114;SDS011;6121;49.810;6.418;2022-11-14T14:47:41;974.25;;;911.00;;
12114;SDS011;6121;49.810;6.418;2022-11-14T14:52:54;989.58;;;925.45;;
12114;SDS011;6121;49.810;6.418;2022-11-14T14:55:28;988.70;;;923.20;;
12114;SDS011;6121;49.810;6.418;2022-11-14T14:58:11;977.50;;;914.20;;
12114;SDS011;6121;49.810;6.418;2022-11-14T15:03:42;980.42;;;917.42;;
12114;SDS011;6121;49.810;6.418;2022-11-14T15:06:28;993.75;;;928.72;;
12114;SDS011;6121;49.810;6.418;2022-11-14T15:09:49;980.13;;;916.10;;
12114;SDS011;6121;49.810;6.418;2022-11-14T15:11:49;984.08;;;920.58;;
12114;SDS011;6121;49.810;6.418;2022-11-14T15:14:19;979.45;;;916.53;;
12114;SDS011;6121;49.810;6.418;2022-11-14T15:16:50;983.40;;;919.65;;
12114;SDS011;6121;49.810;6.418;2022-11-14T15:19:18;982.13;;;919.00;;
12114;SDS011;6121;49.810;6.418;2022-11-14T15:24:41;982.27;;;918.93;;
12114;SDS011;6121;49.810;6.418;2022-11-14T15:29:45;997.20;;;933.17;;
12114;SDS011;6121;49.810;6.418;2022-11-14T15:32:16;983.08;;;920.28;;
12114;SDS011;6121;49.810;6.418;2022-11-14T15:38:02;990.25;;;925.65;;
12114;SDS011;6121;49.810;6.418;2022-11-14T15:40:40;997.05;;;931.92;;
12114;SDS011;6121;49.810;6.418;2022-11-14T15:51:47;987.95;;;924.60;;
12114;SDS011;6121;49.810;6.418;2022-11-14T15:56:53;988.40;;;924.03;;
12114;SDS011;6121;49.810;6.418;2022-11-14T15:59:21;986.63;;;923.70;;
12114;SDS011;6121;49.810;6.418;2022-11-14T16:01:49;988.85;;;925.67;;
12114;SDS011;6121;49.810;6.418;2022-11-14T16:04:22;991.05;;;925.72;;
12114;SDS011;6121;49.810;6.418;2022-11-14T16:06:52;992.63;;;928.63;;
12114;SDS011;6121;49.810;6.418;2022-11-14T16:09:18;1003.63;;;939.17;;
12114;SDS011;6121;49.810;6.418;2022-11-14T16:11:45;999.90;;;935.50;;
12114;SDS011;6121;49.810;6.418;2022-11-14T16:14:11;1004.97;;;940.65;;
12114;SDS011;6121;49.810;6.418;2022-11-14T16:16:37;996.50;;;931.93;;
12114;SDS011;6121;49.810;6.418;2022-11-14T16:19:03;993.10;;;929.15;;
12114;SDS011;6121;49.810;6.418;2022-11-14T16:21:29;1003.83;;;939.08;;
12114;SDS011;6121;49.810;6.418;2022-11-14T16:23:55;1006.07;;;941.37;;
12114;SDS011;6121;49.810;6.418;2022-11-14T16:26:21;984.33;;;921.30;;
12114;SDS011;6121;49.810;6.418;2022-11-14T16:28:49;995.05;;;930.63;;
12114;SDS011;6121;49.810;6.418;2022-11-14T16:31:16;1003.47;;;939.17;;
12114;SDS011;6121;49.810;6.418;2022-11-14T16:33:41;1002.33;;;938.85;;
12114;SDS011;6121;49.810;6.418;2022-11-14T16:36:09;997.73;;;934.40;;
12114;SDS011;6121;49.810;6.418;2022-11-14T16:38:35;994.83;;;930.25;;
12114;SDS011;6121;49.810;6.418;2022-11-14T16:41:04;1009.43;;;943.87;;
12114;SDS011;6121;49.810;6.418;2022-11-14T16:43:33;1003.78;;;940.10;;
12114;SDS011;6121;49.810;6.418;2022-11-14T16:46:03;996.05;;;932.58;;
12114;SDS011;6121;49.810;6.418;2022-11-14T16:48:29;990.50;;;927.50;;
12114;SDS011;6121;49.810;6.418;2022-11-14T16:50:54;1007.00;;;941.63;;
12114;SDS011;6121;49.810;6.418;2022-11-14T16:53:23;992.88;;;931.05;;